Time;durP1;ratioP1;P1;durP2;ratioP2;P2;SDS_P1;SDS_P2;PMS_P1;PMS_P2;Temp;Humidity;BMP_temperature;BMP_pressure;BME280_temperature;BME280_humidity;BME280_pressure;Samples;Min_cycle;Max_cycle;Signal;HPM_P1;HPM_P2
2022/06/02 00:01:30;;;;;;;4.82;3.65;;;15.10;99.90;;;;;;10451913;28;20107;-86
2022/06/02 00:06:47;;;;;;;4.68;2.55;;;15.40;99.90;;;;;;10455794;28;20491;-86
2022/06/02 00:12:06;;;;;;;2.80;2.40;;;15.60;99.90;;;;;;10477727;28;20129;-87
2022/06/02 00:17:22;;;;;;;3.40;2.85;;;15.70;99.90;;;;;;10456440;28;20513;-86
2022/06/02 00:22:47;;;;;;;6.15;3.30;;;15.60;99.90;;;;;;10457052;28;20033;-85
2022/06/02 00:27:58;;;;;;;6.30;4.00;;;15.50;99.90;;;;;;10466690;28;20068;-86
2022/06/02 00:33:15;;;;;;;7.40;4.75;;;15.50;99.90;;;;;;10468223;28;20110;-86
2022/06/02 00:38:25;;;;;;;6.72;5.78;;;15.40;99.90;;;;;;10466059;28;20028;-87
2022/06/02 00:43:47;;;;;;;11.90;10.10;;;15.20;99.90;;;;;;10462476;28;20068;-86
2022/06/02 00:49:05;;;;;;;19.92;15.27;;;15.10;99.90;;;;;;10455026;28;20031;-86
2022/06/02 01:00:05;;;;;;;23.70;19.08;;;14.90;99.90;;;;;;10459262;28;20061;-85
2022/06/02 01:05:06;;;;;;;25.10;20.52;;;14.90;99.90;;;;;;10452980;28;20116;-87
2022/06/02 01:10:24;;;;;;;27.92;22.77;;;14.70;99.90;;;;;;10448522;28;20410;-85
2022/06/02 01:15:30;;;;;;;47.58;36.45;;;14.60;99.90;;;;;;10447236;28;20127;-86
2022/06/02 01:20:31;;;;;;;41.10;33.22;;;14.50;99.90;;;;;;10459672;28;20190;-86
2022/06/02 01:25:59;;;;;;;36.70;27.65;;;14.50;99.90;;;;;;10466891;28;20032;-87
2022/06/02 01:31:40;;;;;;;37.22;28.67;;;14.40;99.90;;;;;;10447759;28;20041;-86
2022/06/02 01:36:52;;;;;;;33.75;26.45;;;14.40;99.90;;;;;;10460338;28;20045;-86
2022/06/02 01:42:27;;;;;;;34.15;26.70;;;14.20;99.90;;;;;;10458331;28;20028;-85
2022/06/02 01:47:37;;;;;;;33.38;24.33;;;14.20;99.90;;;;;;10464246;28;20388;-86
2022/06/02 01:52:55;;;;;;;32.92;24.00;;;14.20;99.90;;;;;;10443941;28;20032;-86
2022/06/02 01:58:32;;;;;;;26.65;18.75;;;14.10;99.90;;;;;;10447816;28;20135;-87
2022/06/02 02:04:04;;;;;;;32.80;24.45;;;14.00;99.90;;;;;;10446511;28;20522;-87
2022/06/02 02:09:35;;;;;;;37.17;29.35;;;13.90;99.90;;;;;;10455478;28;20389;-86
2022/06/02 02:14:50;;;;;;;45.15;31.90;;;13.90;99.90;;;;;;10403785;28;20068;-88
2022/06/02 02:20:16;;;;;;;46.10;33.87;;;13.90;99.90;;;;;;10457352;28;20028;-87
2022/06/02 02:25:53;;;;;;;50.83;37.28;;;13.90;99.90;;;;;;10467338;28;20028;-85
2022/06/02 02:31:26;;;;;;;55.33;40.45;;;13.90;99.90;;;;;;10470609;28;20083;-84
2022/06/02 02:36:41;;;;;;;70.68;47.58;;;13.90;99.90;;;;;;10463806;28;20094;-86
2022/06/02 02:42:03;;;;;;;61.83;38.20;;;13.80;99.90;;;;;;10463206;28;20407;-85
2022/06/02 02:47:21;;;;;;;54.65;34.60;;;13.70;99.90;;;;;;10469021;28;20025;-85
2022/06/02 02:52:37;;;;;;;58.88;36.05;;;13.70;99.90;;;;;;10452263;28;20100;-86
2022/06/02 02:58:00;;;;;;;43.88;28.05;;;13.70;99.90;;;;;;10445298;28;20045;-86
2022/06/02 03:03:08;;;;;;;42.10;25.00;;;13.60;99.90;;;;;;10466993;28;20122;-82
2022/06/02 03:08:29;;;;;;;38.17;25.70;;;13.50;99.90;;;;;;10465030;28;20031;-83
2022/06/02 03:13:55;;;;;;;52.75;26.33;;;13.60;99.90;;;;;;10486787;28;20142;-83
2022/06/02 03:19:04;;;;;;;58.45;33.95;;;13.60;99.90;;;;;;10486847;28;20410;-85
2022/06/02 03:24:42;;;;;;;69.15;39.08;;;13.60;99.90;;;;;;10458995;28;20036;-83
2022/06/02 03:30:16;;;;;;;62.33;35.15;;;13.70;99.90;;;;;;10459269;28;20037;-83
2022/06/02 03:35:25;;;;;;;59.40;34.42;;;13.80;99.90;;;;;;10476129;28;20033;-83
2022/06/02 03:40:51;;;;;;;52.97;31.90;;;13.90;99.90;;;;;;10455720;28;20103;-84
2022/06/02 03:46:19;;;;;;;62.50;35.30;;;13.90;99.90;;;;;;10457022;28;20052;-83
2022/06/02 03:51:42;;;;;;;54.50;33.55;;;14.00;99.90;;;;;;10475520;28;20451;-81
2022/06/02 03:57:07;;;;;;;47.75;31.33;;;14.10;99.90;;;;;;10463955;28;20175;-84
2022/06/02 04:02:15;;;;;;;41.13;25.80;;;14.30;99.90;;;;;;10466008;28;20040;-83
2022/06/02 04:07:40;;;;;;;28.13;18.85;;;14.40;99.90;;;;;;10450735;28;20432;-82
2022/06/02 04:18:54;;;;;;;24.02;16.52;;;14.50;99.90;;;;;;10459608;28;20036;-85
2022/06/02 04:24:20;;;;;;;20.05;15.35;;;14.60;99.90;;;;;;10462678;28;20686;-83
2022/06/02 04:29:37;;;;;;;21.83;14.52;;;14.70;99.90;;;;;;10460836;28;20638;-86
2022/06/02 04:34:56;;;;;;;21.08;15.10;;;14.70;99.90;;;;;;10477415;28;20070;-86
2022/06/02 04:40:12;;;;;;;31.63;18.70;;;14.70;99.90;;;;;;10449323;28;20858;-85
2022/06/02 04:45:21;;;;;;;29.83;19.23;;;14.70;99.90;;;;;;10461650;28;20021;-87
2022/06/02 04:50:46;;;;;;;23.02;16.65;;;14.70;99.90;;;;;;10469065;28;20393;-87
2022/06/02 04:56:08;;;;;;;22.98;15.90;;;14.90;99.90;;;;;;10451114;28;20044;-86
2022/06/02 05:01:46;;;;;;;23.10;15.57;;;15.10;99.90;;;;;;10468504;28;20128;-87
2022/06/02 05:06:53;;;;;;;19.58;14.10;;;15.40;99.90;;;;;;10456400;28;20056;-87
2022/06/02 05:12:29;;;;;;;16.00;12.05;;;15.60;99.90;;;;;;10446404;28;20510;-87
2022/06/02 05:17:40;;;;;;;17.77;11.60;;;15.70;99.90;;;;;;10446589;28;20040;-86
2022/06/02 05:23:12;;;;;;;18.48;13.23;;;15.70;99.90;;;;;;10459750;28;20814;-87
2022/06/02 05:28:25;;;;;;;15.25;12.52;;;15.70;99.90;;;;;;10469850;28;20040;-86
2022/06/02 05:34:03;;;;;;;23.95;17.92;;;15.70;99.90;;;;;;10471652;28;20040;-87
2022/06/02 05:39:16;;;;;;;39.50;30.58;;;15.80;99.90;;;;;;10455571;28;20067;-87
2022/06/02 05:44:48;;;;;;;41.88;31.48;;;15.70;99.90;;;;;;10459791;28;20618;-87
2022/06/02 05:49:55;;;;;;;36.60;27.40;;;15.70;99.90;;;;;;10455393;28;20059;-87
2022/06/02 05:55:29;;;;;;;31.55;24.95;;;15.90;99.90;;;;;;10449915;28;20488;-86
2022/06/02 06:00:45;;;;;;;25.92;18.70;;;16.30;99.90;;;;;;10452256;28;20075;-86
2022/06/02 06:05:53;;;;;;;17.08;11.00;;;16.70;99.90;;;;;;10454982;28;20112;-85
2022/06/02 06:11:32;;;;;;;25.75;17.77;;;16.70;99.90;;;;;;10454105;28;20461;-86
2022/06/02 06:16:44;;;;;;;46.55;31.02;;;16.50;99.90;;;;;;10445597;28;20099;-85
2022/06/02 06:22:06;;;;;;;10.05;6.72;;;16.60;99.90;;;;;;10455948;28;20029;-85
2022/06/02 06:27:11;;;;;;;11.57;6.28;;;16.70;99.90;;;;;;10469325;28;20036;-84
2022/06/02 06:32:30;;;;;;;10.10;6.75;;;16.70;99.90;;;;;;10460841;28;20028;-87
2022/06/02 06:38:06;;;;;;;9.60;6.97;;;16.90;99.90;;;;;;10458314;28;20037;-87
2022/06/02 06:43:22;;;;;;;12.07;7.93;;;16.90;99.90;;;;;;10460082;28;20040;-85
2022/06/02 06:48:32;;;;;;;11.88;7.63;;;16.90;99.90;;;;;;10455190;28;20535;-86
2022/06/02 06:54:11;;;;;;;9.20;6.78;;;17.50;99.90;;;;;;10462980;28;20395;-87
2022/06/02 06:59:26;;;;;;;7.68;5.50;;;17.50;99.90;;;;;;10477972;28;20060;-87
2022/06/02 07:04:56;;;;;;;8.65;6.35;;;17.70;99.90;;;;;;10456253;28;20542;-86
2022/06/02 07:10:01;;;;;;;9.88;6.00;;;17.80;99.90;;;;;;10453920;28;20143;-86
2022/06/02 07:15:11;;;;;;;10.02;7.57;;;18.70;99.90;;;;;;10454652;28;20044;-87
2022/06/02 07:20:30;;;;;;;10.15;7.40;;;18.80;99.90;;;;;;10472084;28;20050;-86
2022/06/02 07:26:09;;;;;;;9.77;8.77;;;18.40;99.90;;;;;;10471165;28;20428;-87
2022/06/02 07:31:39;;;;;;;14.35;10.05;;;18.20;99.90;;;;;;10475422;28;20683;-85
2022/06/02 07:36:45;;;;;;;13.77;11.20;;;17.40;99.90;;;;;;10452627;28;20049;-85
2022/06/02 07:41:54;;;;;;;13.60;11.57;;;16.50;99.90;;;;;;10472997;28;20143;-86
2022/06/02 07:47:02;;;;;;;11.95;10.23;;;16.10;99.90;;;;;;10470333;28;20036;-86
2022/06/02 07:52:24;;;;;;;11.38;8.70;;;16.10;99.90;;;;;;10471364;28;20099;-86
2022/06/02 07:57:40;;;;;;;9.27;8.27;;;16.20;99.90;;;;;;10471209;28;20392;-86
2022/06/02 08:03:02;;;;;;;;;;;16.40;99.90;;;;;;10473113;28;20182;-86
2022/06/02 08:08:55;;;;;;;5.00;3.72;;;16.60;99.90;;;;;;10470937;28;19952;-86
2022/06/02 08:14:18;;;;;;;5.05;3.05;;;16.60;99.90;;;;;;10439432;28;20652;-87
2022/06/02 08:19:23;;;;;;;3.78;3.33;;;16.30;99.90;;;;;;10461984;28;20020;-85
2022/06/02 08:24:40;;;;;;;3.70;3.15;;;16.30;99.90;;;;;;10460349;28;20121;-86
2022/06/02 08:30:38;;;;;;;6.80;3.70;;;16.40;99.90;;;;;;10463433;28;20033;-87
2022/06/02 08:36:06;;;;;;;5.18;3.20;;;17.00;99.90;;;;;;10331629;28;20462;-86
2022/06/02 08:41:41;;;;;;;5.22;3.60;;;17.30;99.90;;;;;;10441155;28;20090;-85
2022/06/02 08:46:53;;;;;;;4.30;3.40;;;17.70;99.90;;;;;;10458797;28;20036;-87
2022/06/02 08:52:23;;;;;;;4.90;3.67;;;17.70;99.90;;;;;;10447332;28;20029;-86
2022/06/02 08:57:51;;;;;;;4.38;3.50;;;18.10;99.90;;;;;;10445964;28;20418;-87
2022/06/02 09:03:13;;;;;;;6.22;3.30;;;18.60;99.90;;;;;;10451296;28;20056;-86
2022/06/02 09:08:48;;;;;;;4.55;3.60;;;18.70;99.90;;;;;;10456372;28;20025;-86
2022/06/02 09:14:11;;;;;;;3.50;3.20;;;18.90;99.90;;;;;;10472161;28;20094;-90
2022/06/02 09:19:33;;;;;;;5.85;3.30;;;18.60;99.90;;;;;;10460856;28;20037;-88
2022/06/02 09:25:03;;;;;;;4.03;3.00;;;18.50;99.90;;;;;;10465685;28;20021;-86
2022/06/02 09:30:19;;;;;;;3.25;2.85;;;18.80;99.90;;;;;;10431872;28;20040;-88
2022/06/02 09:35:44;;;;;;;3.05;2.72;;;19.30;99.90;;;;;;10460763;28;20128;-87
2022/06/02 09:40:52;;;;;;;3.13;2.87;;;19.40;99.90;;;;;;10452829;28;20469;-88
2022/06/02 09:46:14;;;;;;;3.13;2.83;;;19.60;99.90;;;;;;10469037;28;20025;-88
2022/06/02 09:51:45;;;;;;;3.42;3.13;;;20.10;99.90;;;;;;10470678;28;20035;-86
2022/06/02 10:03:22;;;;;;;4.28;2.95;;;19.80;99.90;;;;;;10467946;28;20044;-89
2022/06/02 10:08:45;;;;;;;4.47;3.03;;;20.10;99.90;;;;;;10481924;28;20023;-88
2022/06/02 10:14:11;;;;;;;3.83;3.08;;;20.40;99.90;;;;;;10452805;28;20056;-86
2022/06/02 10:19:33;;;;;;;3.70;3.22;;;20.50;99.90;;;;;;10495649;28;20028;-87
2022/06/02 10:24:34;;;;;;;3.97;3.35;;;19.90;99.90;;;;;;10460521;28;20037;-87
2022/06/02 10:30:03;;;;;;;3.28;2.95;;;19.50;99.90;;;;;;10478125;28;20051;-87
2022/06/02 10:35:33;;;;;;;3.38;3.08;;;19.80;99.90;;;;;;10481068;28;20357;-86
2022/06/02 10:40:42;;;;;;;4.38;3.28;;;19.50;99.90;;;;;;10469394;28;20029;-88
2022/06/02 10:46:10;;;;;;;3.08;2.78;;;20.00;99.90;;;;;;10454468;28;20025;-86
2022/06/02 10:51:49;;;;;;;4.40;3.00;;;20.50;99.90;;;;;;10467728;28;20025;-87
2022/06/02 10:57:10;;;;;;;4.30;2.90;;;21.20;99.90;;;;;;10463247;28;20143;-87
2022/06/02 11:02:14;;;;;;;2.95;2.58;;;21.90;99.90;;;;;;10413485;28;20107;-86
2022/06/02 11:07:54;;;;;;;2.83;2.05;;;22.40;99.90;;;;;;10464234;28;20020;-85
2022/06/02 11:13:09;;;;;;;2.53;1.80;;;22.30;99.90;;;;;;10450089;28;20060;-84
2022/06/02 11:18:50;;;;;;;4.03;2.33;;;22.40;99.90;;;;;;10455601;28;20033;-87
2022/06/02 11:24:12;;;;;;;2.75;2.47;;;22.40;99.90;;;;;;10468319;28;20467;-88
2022/06/02 11:29:28;;;;;;;5.80;2.80;;;22.00;99.90;;;;;;10477157;28;20017;-88
2022/06/02 11:35:06;;;;;;;2.53;1.80;;;22.20;99.90;;;;;;10467362;28;20381;-89
2022/06/02 11:40:16;;;;;;;1.80;1.70;;;22.80;99.90;;;;;;10485013;28;20028;-88
2022/06/02 11:45:35;;;;;;;4.63;2.10;;;23.20;99.90;;;;;;10475431;28;20016;-88
2022/06/02 11:50:48;;;;;;;3.03;1.80;;;23.40;99.90;;;;;;10466761;28;20103;-89
2022/06/02 11:56:11;;;;;;;2.25;1.65;;;23.40;96.00;;;;;;10466793;28;20039;-89
2022/06/02 12:01:31;;;;;;;1.88;1.77;;;23.60;87.40;;;;;;10471459;28;20076;-87
2022/06/02 12:07:09;;;;;;;4.63;1.70;;;23.80;91.90;;;;;;10462539;28;20473;-89
2022/06/02 12:12:41;;;;;;;1.40;1.30;;;23.90;83.90;;;;;;10459130;28;20037;-89
2022/06/02 12:18:20;;;;;;;4.60;2.10;;;24.00;81.80;;;;;;10462793;28;20507;-87
2022/06/02 12:23:54;;;;;;;2.13;1.92;;;23.70;74.50;;;;;;10460919;28;20028;-86
2022/06/02 12:29:29;;;;;;;5.18;3.05;;;23.90;72.50;;;;;;10455546;28;20028;-89
2022/06/02 12:35:01;;;;;;;1.95;1.40;;;24.10;72.20;;;;;;10455951;28;20055;-88
2022/06/02 12:40:24;;;;;;;1.58;1.40;;;24.40;75.40;;;;;;10471184;28;20024;-88
2022/06/02 12:45:37;;;;;;;1.52;1.38;;;24.50;71.00;;;;;;10489652;28;20120;-87
2022/06/02 12:50:37;;;;;;;3.22;1.73;;;24.70;67.40;;;;;;10474516;28;20078;-88
2022/06/02 12:56:16;;;;;;;1.45;1.05;;;24.70;68.00;;;;;;10469248;28;20029;-87
2022/06/02 13:01:31;;;;;;;3.72;1.27;;;24.60;67.60;;;;;;10462453;28;20468;-87
2022/06/02 13:07:01;;;;;;;1.63;1.40;;;24.60;66.70;;;;;;10476568;28;20032;-87
2022/06/02 13:12:51;;;;;;;1.42;1.08;;;24.70;64.40;;;;;;10456761;28;20072;-85
2022/06/02 13:18:22;;;;;;;1.70;0.73;;;24.60;62.40;;;;;;10457947;28;20037;-86
2022/06/02 13:23:34;;;;;;;2.83;1.10;;;24.50;61.20;;;;;;10464884;28;20032;-85
2022/06/02 13:29:02;;;;;;;1.15;0.77;;;24.20;62.70;;;;;;10458063;28;20052;-85
2022/06/02 13:34:22;;;;;;;2.38;1.00;;;24.10;61.00;;;;;;10461163;28;20051;-84
2022/06/02 13:39:44;;;;;;;7.30;4.28;;;24.20;62.50;;;;;;10445675;28;20491;-88
2022/06/02 13:45:20;;;;;;;2.20;1.35;;;23.70;60.40;;;;;;10459603;28;20134;-85
2022/06/02 13:50:55;;;;;;;0.98;0.90;;;23.70;59.10;;;;;;10468987;28;20018;-87
2022/06/02 14:02:04;;;;;;;1.70;1.08;;;23.50;60.90;;;;;;10418217;28;20056;-91
2022/06/02 14:07:32;;;;;;;7.43;3.83;;;23.40;61.80;;;;;;10462137;28;20033;-86
2022/06/02 14:12:56;;;;;;;1.30;1.20;;;23.20;63.60;;;;;;10450012;28;20032;-90
2022/06/02 14:18:21;;;;;;;2.40;1.20;;;23.10;63.00;;;;;;10451714;28;20025;-87
2022/06/02 14:23:46;;;;;;;1.02;0.90;;;23.00;63.30;;;;;;10458339;28;20033;-87
2022/06/02 14:28:59;;;;;;;2.20;1.30;;;22.90;64.40;;;;;;10462714;28;20037;-85
2022/06/02 14:34:14;;;;;;;3.30;1.80;;;22.60;64.40;;;;;;10454684;28;20029;-88
2022/06/02 14:39:17;;;;;;;4.50;2.60;;;22.50;64.30;;;;;;10461134;28;20464;-86
2022/06/02 14:44:42;;;;;;;3.30;1.60;;;22.40;63.70;;;;;;10465348;28;20024;-86
2022/06/02 14:50:12;;;;;;;3.22;2.38;;;22.30;65.40;;;;;;10452761;28;20095;-89
2022/06/02 14:55:31;;;;;;;2.45;2.00;;;22.30;65.90;;;;;;10454415;28;20077;-87
2022/06/02 15:00:51;;;;;;;1.73;1.23;;;22.30;65.00;;;;;;10458203;28;20061;-87
2022/06/02 15:05:55;;;;;;;3.17;1.23;;;22.10;66.80;;;;;;10459319;28;20041;-89
2022/06/02 15:11:05;;;;;;;6.75;4.43;;;21.90;66.00;;;;;;10472084;28;20033;-85
2022/06/02 15:16:39;;;;;;;12.70;6.57;;;21.80;65.70;;;;;;10464033;28;20039;-85
2022/06/02 15:21:49;;;;;;;2.88;1.88;;;21.70;66.10;;;;;;10467148;28;20032;-85
2022/06/02 15:27:19;;;;;;;2.40;1.80;;;21.60;66.90;;;;;;10478804;28;20115;-86
2022/06/02 15:32:32;;;;;;;1.73;1.25;;;21.50;67.20;;;;;;10464235;28;20040;-87
2022/06/02 15:37:51;;;;;;;2.65;1.90;;;21.50;69.10;;;;;;10475432;28;20151;-86
2022/06/02 15:43:26;;;;;;;4.05;2.28;;;21.50;68.60;;;;;;10466497;28;20063;-87
2022/06/02 15:49:22;;;;;;;3.08;1.75;;;21.40;68.20;;;;;;10463419;28;20032;-86
2022/06/02 15:55:04;;;;;;;2.95;1.60;;;21.40;69.10;;;;;;10466983;28;20483;-87
2022/06/02 16:00:42;;;;;;;2.53;1.77;;;21.30;69.50;;;;;;10473834;28;20448;-86
2022/06/02 16:06:40;;;;;;;2.17;1.98;;;21.20;69.70;;;;;;10463052;28;20035;-85
2022/06/02 16:12:08;;;;;;;1.92;1.75;;;21.20;69.90;;;;;;10390081;28;20097;-85
2022/06/02 16:17:46;;;;;;;4.75;1.60;;;21.20;70.50;;;;;;10472852;28;20037;-86
2022/06/02 16:23:08;;;;;;;3.65;1.63;;;21.20;70.50;;;;;;10457430;28;20083;-86
2022/06/02 16:28:37;;;;;;;3.08;1.52;;;21.10;70.60;;;;;;10457012;28;20610;-84
2022/06/02 16:34:21;;;;;;;2.83;1.60;;;20.90;70.60;;;;;;10457729;28;20041;-84
2022/06/02 16:39:42;;;;;;;1.88;1.60;;;20.80;70.90;;;;;;10450550;28;20060;-87
2022/06/02 16:45:03;;;;;;;1.60;1.50;;;20.80;71.70;;;;;;10451596;28;20547;-86
2022/06/02 16:50:17;;;;;;;1.77;1.50;;;20.80;73.00;;;;;;10452789;28;20078;-85
2022/06/02 16:55:43;;;;;;;4.35;1.80;;;20.70;72.10;;;;;;10453895;28;20037;-84
2022/06/02 17:01:04;;;;;;;4.05;1.60;;;20.60;72.10;;;;;;10473139;28;20068;-84
2022/06/02 17:06:11;;;;;;;1.70;1.30;;;20.40;72.30;;;;;;10460011;28;20025;-84
2022/06/02 17:11:34;;;;;;;4.68;2.47;;;20.40;71.00;;;;;;10463328;28;20048;-85
2022/06/02 17:16:51;;;;;;;1.80;1.40;;;20.30;72.80;;;;;;10446443;28;20025;-86
2022/06/02 17:22:23;;;;;;;1.33;1.27;;;20.10;73.90;;;;;;10459565;28;20037;-85
2022/06/02 17:27:40;;;;;;;1.50;1.40;;;20.00;73.70;;;;;;10453041;28;20112;-86
2022/06/02 17:32:47;;;;;;;2.05;1.33;;;19.80;78.00;;;;;;10454533;28;20488;-85
2022/06/02 17:38:16;;;;;;;2.72;1.65;;;19.60;76.60;;;;;;10459146;28;20031;-87
2022/06/02 17:43:42;;;;;;;3.13;1.50;;;19.50;80.10;;;;;;10464729;28;20025;-85
2022/06/02 17:49:21;;;;;;;1.83;1.50;;;19.10;80.10;;;;;;10461650;28;20078;-86
2022/06/02 17:54:31;;;;;;;5.65;2.33;;;18.80;81.90;;;;;;10395970;28;20088;-84
2022/06/02 18:00:04;;;;;;;2.15;1.88;;;18.60;81.90;;;;;;10467375;28;20119;-84
2022/06/02 18:05:38;;;;;;;3.20;2.17;;;18.10;85.90;;;;;;10459088;28;20100;-86
2022/06/02 18:10:56;;;;;;;2.00;1.88;;;17.60;88.10;;;;;;10458907;28;20087;-86
2022/06/02 18:16:27;;;;;;;2.60;2.35;;;17.30;88.30;;;;;;10461712;28;20040;-85
2022/06/02 18:21:40;;;;;;;5.32;2.45;;;17.00;90.60;;;;;;10459796;28;20025;-87
2022/06/02 18:26:56;;;;;;;3.30;2.40;;;16.60;91.60;;;;;;10468000;28;20024;-84
2022/06/02 18:31:57;;;;;;;;;;;16.20;92.60;;;;;;10464136;28;20064;-86
2022/06/02 18:37:13;;;;;;;4.80;3.05;;;15.90;94.00;;;;;;10454035;28;20358;-86
2022/06/02 18:42:44;;;;;;;5.97;2.97;;;15.60;94.90;;;;;;10460764;28;20144;-83
2022/06/02 18:48:09;;;;;;;5.03;3.08;;;15.30;97.60;;;;;;10471649;28;20319;-83
2022/06/02 18:53:28;;;;;;;7.20;3.47;;;15.00;98.30;;;;;;10483689;28;20025;-86
2022/06/02 18:58:47;;;;;;;8.07;2.90;;;14.80;99.90;;;;;;10483466;28;20025;-84
2022/06/02 19:04:25;;;;;;;6.63;3.22;;;14.60;99.90;;;;;;10481402;28;20459;-86
2022/06/02 19:15:12;;;;;;;6.65;3.50;;;14.10;99.90;;;;;;10473610;28;20048;-85
2022/06/02 19:20:31;;;;;;;5.95;3.80;;;13.90;99.90;;;;;;10469500;28;20071;-84
2022/06/02 19:25:44;;;;;;;4.22;3.70;;;13.80;99.90;;;;;;10463509;28;20021;-85
2022/06/02 19:31:04;;;;;;;4.38;2.83;;;13.70;99.90;;;;;;10458735;28;20029;-84
2022/06/02 19:36:28;;;;;;;4.45;3.67;;;13.60;99.90;;;;;;10458991;28;20044;-83
2022/06/02 19:41:39;;;;;;;5.13;3.95;;;13.40;99.90;;;;;;10450355;28;20048;-84
2022/06/02 19:47:03;;;;;;;4.35;3.92;;;13.20;99.90;;;;;;10467695;28;20122;-88
2022/06/02 19:52:23;;;;;;;7.18;3.70;;;13.10;99.90;;;;;;10463828;28;20041;-84
2022/06/02 19:57:45;;;;;;;9.48;4.30;;;13.00;99.90;;;;;;10466129;28;20401;-85
2022/06/02 20:02:49;;;;;;;6.95;3.65;;;12.90;99.90;;;;;;10479630;28;20117;-84
2022/06/02 20:08:12;;;;;;;6.18;3.83;;;12.90;99.90;;;;;;10474746;28;20033;-86
2022/06/02 20:13:22;;;;;;;5.88;3.97;;;12.80;99.90;;;;;;10462250;28;20040;-84
2022/06/02 20:18:35;;;;;;;5.70;5.10;;;12.80;99.90;;;;;;10497445;23;20123;-86
2022/06/02 20:23:54;;;;;;;9.30;5.20;;;12.70;99.90;;;;;;10485433;28;20362;-87
2022/06/02 20:29:19;;;;;;;9.30;5.70;;;12.60;99.90;;;;;;10490034;28;20137;-87
2022/06/02 20:34:44;;;;;;;10.75;5.47;;;12.50;99.90;;;;;;10479958;28;20040;-84
2022/06/02 20:39:54;;;;;;;7.85;4.93;;;12.40;99.90;;;;;;10476845;28;20032;-84
2022/06/02 20:44:55;;;;;;;6.70;5.07;;;12.40;99.90;;;;;;10485465;28;20554;-83
2022/06/02 20:50:11;;;;;;;8.30;5.65;;;12.30;99.90;;;;;;10516912;22;20064;-83
2022/06/02 20:55:19;;;;;;;15.18;8.50;;;12.40;99.90;;;;;;10487071;28;20036;-83
2022/06/02 21:00:46;;;;;;;14.38;9.75;;;12.30;99.90;;;;;;10485822;28;20094;-84
2022/06/02 21:06:05;;;;;;;12.88;8.32;;;12.10;99.90;;;;;;10485300;28;20067;-85
2022/06/02 21:11:16;;;;;;;11.07;6.43;;;12.10;99.90;;;;;;10466521;28;20077;-83
2022/06/02 21:16:44;;;;;;;9.68;5.80;;;12.00;99.90;;;;;;10465334;28;20618;-84
2022/06/02 21:22:03;;;;;;;6.45;5.75;;;11.90;99.90;;;;;;10485858;28;20117;-85
2022/06/02 21:27:22;;;;;;;9.40;5.40;;;11.80;99.90;;;;;;10485068;28;20032;-83
2022/06/02 21:32:26;;;;;;;7.00;5.32;;;11.80;99.90;;;;;;10481897;28;20037;-83
2022/06/02 21:37:33;;;;;;;10.15;6.28;;;11.70;99.90;;;;;;10483244;28;20089;-83
2022/06/02 21:42:41;;;;;;;9.52;5.95;;;11.70;99.90;;;;;;10484001;28;20032;-83
2022/06/02 21:48:01;;;;;;;8.48;6.15;;;11.60;99.90;;;;;;10484882;28;20527;-83
2022/06/02 21:53:23;;;;;;;9.98;5.65;;;11.60;99.90;;;;;;10483716;28;20040;-83
2022/06/02 21:58:34;;;;;;;6.57;5.28;;;11.60;99.90;;;;;;10484980;28;20391;-87
2022/06/02 22:04:02;;;;;;;7.78;6.18;;;11.60;99.90;;;;;;10484448;28;20043;-85
2022/06/02 22:09:03;;;;;;;9.35;6.78;;;11.70;99.90;;;;;;10484677;28;20056;-83
2022/06/02 22:14:30;;;;;;;12.20;5.65;;;11.80;99.90;;;;;;10485799;28;20140;-84
2022/06/02 22:20:15;;;;;;;9.60;6.07;;;11.80;99.90;;;;;;10482805;28;20048;-85
2022/06/02 22:25:19;;;;;;;7.65;5.65;;;11.60;99.90;;;;;;10485082;28;20032;-84
2022/06/02 22:30:28;;;;;;;8.85;5.65;;;11.40;99.90;;;;;;10482546;28;20044;-84
2022/06/02 22:35:47;;;;;;;9.05;5.38;;;11.50;99.90;;;;;;10472451;28;20044;-90
2022/06/02 22:41:04;;;;;;;7.55;4.45;;;11.40;99.90;;;;;;10485432;28;20115;-87
2022/06/02 22:46:39;;;;;;;10.48;6.97;;;11.40;99.90;;;;;;10481883;28;20491;-85
2022/06/02 22:52:05;;;;;;;9.38;7.53;;;11.30;99.90;;;;;;10373257;28;20051;-88
2022/06/02 22:57:39;;;;;;;9.68;6.70;;;11.50;99.90;;;;;;10472747;28;20035;-87
2022/06/02 23:02:54;;;;;;;11.35;7.28;;;11.40;99.90;;;;;;10485768;28;20111;-87
2022/06/02 23:08:17;;;;;;;10.33;7.50;;;11.40;99.90;;;;;;10478000;28;20029;-84
2022/06/02 23:13:27;;;;;;;9.85;7.43;;;11.10;99.90;;;;;;10485102;28;20299;-86
2022/06/02 23:18:36;;;;;;;12.55;7.10;;;10.90;99.90;;;;;;10485764;28;20555;-84
2022/06/02 23:23:54;;;;;;;16.60;7.10;;;10.90;99.90;;;;;;10471279;28;20116;-84
2022/06/02 23:29:18;;;;;;;10.90;7.65;;;11.10;99.90;;;;;;10492806;28;20032;-89
2022/06/02 23:34:37;;;;;;;10.57;8.05;;;11.10;99.90;;;;;;10488724;28;20043;-88
2022/06/02 23:39:50;;;;;;;12.13;8.55;;;11.30;99.90;;;;;;10489599;28;20029;-85
2022/06/02 23:45:31;;;;;;;15.80;8.50;;;11.20;99.90;;;;;;10493006;28;20028;-85
2022/06/02 23:50:59;;;;;;;13.07;8.32;;;11.20;99.90;;;;;;10393408;28;20049;-86
2022/06/02 23:56:33;;;;;;;13.67;8.20;;;11.00;99.90;;;;;;10396472;28;20444;-87
